createdAt,value
2018-04-12T00:02:04.977Z,56.80
2018-04-12T00:04:33.274Z,57.56
2018-04-12T00:07:02.316Z,56.72
2018-04-12T00:09:30.591Z,56.36
2018-04-12T00:11:58.869Z,55.11
2018-04-12T00:14:27.161Z,56.36
2018-04-12T00:16:55.444Z,55.39
2018-04-12T00:19:23.713Z,56.11
2018-04-12T00:21:52.010Z,54.81
2018-04-12T00:24:21.045Z,55.47
2018-04-12T00:26:49.322Z,54.94
2018-04-12T00:29:17.589Z,54.74
2018-04-12T00:31:45.885Z,55.44
2018-04-12T00:34:14.159Z,54.66
2018-04-12T00:36:42.435Z,54.70
2018-04-12T00:39:10.727Z,54.55
2018-04-12T00:41:39.358Z,54.78
2018-04-12T00:44:07.649Z,55.09
2018-04-12T00:46:35.914Z,55.97
2018-04-12T00:49:04.233Z,55.82
2018-04-12T00:51:32.495Z,56.35
2018-04-12T00:54:07.427Z,56.34
2018-04-12T00:56:35.688Z,56.58
2018-04-12T00:59:03.971Z,56.76
2018-04-12T01:01:32.246Z,57.06
2018-04-12T01:04:00.614Z,57.35
2018-04-12T01:06:28.911Z,57.24
2018-04-12T01:08:57.199Z,57.77
2018-04-12T01:11:25.633Z,57.37
2018-04-12T01:13:53.976Z,57.86
2018-04-12T01:16:23.030Z,57.67
2018-04-12T01:18:51.290Z,57.54
2018-04-12T01:21:19.580Z,56.95
2018-04-12T01:23:47.882Z,56.98
2018-04-12T01:26:16.159Z,56.71
2018-04-12T01:28:44.784Z,56.55
2018-04-12T01:31:13.052Z,56.77
2018-04-12T01:33:41.315Z,56.53
2018-04-12T01:36:10.344Z,55.66
2018-04-12T01:38:38.630Z,55.81
2018-04-12T01:41:06.904Z,55.58
2018-04-12T01:43:35.177Z,55.75
2018-04-12T01:46:03.442Z,56.15
2018-04-12T01:48:31.729Z,56.26
2018-04-12T01:50:59.989Z,56.12
2018-04-12T01:53:28.253Z,56.39
2018-04-12T01:55:56.516Z,56.42
2018-04-12T01:58:24.816Z,56.35
2018-04-12T02:00:53.093Z,56.37
2018-04-12T02:03:21.369Z,56.51
2018-04-12T02:05:49.637Z,57.00
2018-04-12T02:08:17.918Z,57.25
2018-04-12T02:10:46.221Z,57.06
2018-04-12T02:13:14.473Z,57.42
2018-04-12T02:15:42.989Z,57.51
2018-04-12T02:18:11.262Z,58.02
2018-04-12T02:20:39.554Z,57.31
2018-04-12T02:23:08.592Z,57.52
2018-04-12T02:25:36.871Z,58.16
2018-04-12T02:28:05.141Z,58.15
2018-04-12T02:30:33.433Z,58.95
2018-04-12T02:33:01.702Z,59.62
2018-04-12T02:35:29.983Z,60.37
2018-04-12T02:37:58.275Z,61.65
2018-04-12T02:40:26.583Z,64.09
2018-04-12T02:42:55.649Z,63.44
2018-04-12T02:45:23.907Z,64.09
2018-04-12T02:47:52.365Z,65.08
2018-04-12T02:50:20.762Z,65.70
2018-04-12T02:52:49.429Z,66.11
2018-04-12T02:55:17.709Z,65.40
2018-04-12T02:57:46.007Z,65.66
2018-04-12T03:00:14.333Z,64.65
2018-04-12T03:02:42.650Z,65.58
2018-04-12T03:05:10.940Z,66.23
2018-04-12T03:07:39.220Z,66.07
2018-04-12T03:10:07.521Z,66.85
2018-04-12T03:12:36.547Z,67.47
2018-04-12T03:15:04.844Z,67.31
2018-04-12T03:17:33.115Z,67.44
2018-04-12T03:20:01.518Z,67.70
2018-04-12T03:22:29.803Z,68.27
2018-04-12T03:24:58.978Z,68.90
2018-04-12T03:27:27.255Z,69.51
2018-04-12T03:29:55.552Z,69.43
2018-04-12T03:32:23.808Z,70.36
2018-04-12T03:34:52.367Z,71.16
2018-04-12T03:37:20.760Z,71.81
2018-04-12T03:39:49.045Z,73.30
2018-04-12T03:42:17.352Z,72.29
2018-04-12T03:44:46.382Z,73.66
2018-04-12T03:47:14.665Z,74.80
2018-04-12T03:49:43.015Z,74.82
2018-04-12T03:52:11.244Z,75.26
2018-04-12T03:54:39.526Z,75.83
2018-04-12T03:57:08.571Z,75.04
2018-04-12T03:59:36.854Z,75.59
2018-04-12T04:02:05.137Z,75.46
2018-04-12T04:04:33.407Z,74.97
2018-04-12T04:07:01.676Z,74.45
2018-04-12T04:09:29.959Z,74.98
2018-04-12T04:11:58.538Z,75.09
2018-04-12T04:14:41.972Z,75.35
2018-04-12T04:17:28.170Z,75.50
2018-04-12T04:20:15.397Z,75.74
2018-04-12T04:22:43.938Z,75.85
2018-04-12T04:25:12.553Z,76.62
2018-04-12T04:27:41.223Z,76.78
2018-04-12T04:30:09.748Z,77.05
2018-04-12T04:32:38.272Z,76.42
2018-04-12T04:35:06.994Z,76.32
2018-04-12T04:37:35.377Z,76.96
2018-04-12T04:40:03.932Z,75.96
2018-04-12T04:42:32.411Z,75.60
2018-04-12T04:45:00.726Z,75.98
2018-04-12T04:47:29.070Z,75.66
2018-04-12T04:49:57.593Z,75.02
2018-04-12T04:52:25.929Z,74.25
2018-04-12T04:54:54.278Z,74.36
2018-04-12T04:57:22.674Z,74.56
2018-04-12T04:59:51.090Z,74.06
2018-04-12T05:02:19.374Z,73.48
2018-04-12T05:04:47.746Z,73.57
2018-04-12T05:07:16.182Z,73.77
2018-04-12T05:09:45.166Z,73.92
2018-04-12T05:12:13.449Z,73.83
2018-04-12T05:14:41.720Z,75.35
2018-04-12T05:17:10.004Z,73.56
2018-04-12T05:19:38.318Z,74.27
2018-04-12T05:22:08.221Z,74.17
2018-04-12T05:24:36.879Z,74.59
2018-04-12T05:27:05.178Z,74.75
2018-04-12T05:29:33.442Z,75.72
2018-04-12T05:32:01.708Z,75.24
2018-04-12T05:34:29.991Z,75.34
2018-04-12T05:36:58.278Z,75.46
2018-04-12T05:39:26.564Z,75.82
2018-04-12T05:41:54.914Z,76.90
2018-04-12T05:44:23.285Z,76.17
2018-04-12T05:46:51.617Z,75.56
2018-04-12T05:49:20.658Z,76.46
2018-04-12T05:51:48.930Z,76.30
2018-04-12T05:54:17.224Z,76.51
2018-04-12T05:56:45.557Z,76.40
2018-04-12T05:59:13.859Z,76.98
2018-04-12T06:01:42.180Z,77.86
2018-04-12T06:04:11.419Z,77.84
2018-04-12T06:06:39.702Z,78.48
2018-04-12T06:09:08.220Z,78.64
2018-04-12T06:11:36.518Z,79.16
2018-04-12T06:14:05.597Z,79.13
2018-04-12T06:16:33.865Z,78.52
2018-04-12T06:19:02.140Z,77.97
2018-04-12T06:21:30.432Z,77.83
2018-04-12T06:23:59.574Z,77.06
2018-04-12T06:26:27.853Z,76.61
2018-04-12T06:28:56.162Z,76.49
2018-04-12T06:31:25.208Z,75.08
2018-04-12T06:33:53.491Z,74.53
2018-04-12T06:36:21.769Z,75.10
2018-04-12T06:38:50.056Z,74.69
2018-04-12T06:41:18.326Z,74.48
2018-04-12T06:43:53.162Z,73.61
2018-04-12T06:46:21.531Z,72.28
2018-04-12T06:48:49.800Z,72.01
2018-04-12T06:51:18.095Z,71.29
2018-04-12T06:53:46.375Z,71.65
2018-04-12T06:56:14.689Z,71.01
2018-04-12T06:58:43.856Z,70.89
2018-04-12T07:01:12.593Z,70.37
2018-04-12T07:03:40.878Z,69.58
2018-04-12T07:06:09.121Z,69.40
2018-04-12T07:08:38.173Z,68.97
2018-04-12T07:11:06.438Z,69.66
2018-04-12T07:13:34.718Z,68.76
2018-04-12T07:16:03.118Z,68.12
2018-04-12T07:18:31.410Z,67.14
2018-04-12T07:21:00.442Z,66.46
2018-04-12T07:23:28.725Z,65.36
2018-04-12T07:25:57.866Z,65.92
2018-04-12T07:28:26.145Z,64.75
2018-04-12T07:30:55.213Z,63.71
2018-04-12T07:33:23.495Z,62.49
2018-04-12T07:35:51.761Z,59.49
2018-04-12T07:38:20.033Z,60.20
2018-04-12T07:40:48.307Z,57.33
2018-04-12T07:43:16.620Z,57.49
2018-04-12T07:45:45.692Z,56.04
2018-04-12T07:48:14.029Z,56.97
2018-04-12T07:50:42.314Z,56.35
2018-04-12T07:53:10.614Z,54.06
2018-04-12T07:55:38.906Z,54.42
2018-04-12T07:58:07.928Z,54.20
2018-04-12T08:00:36.234Z,54.01
2018-04-12T08:03:04.540Z,54.56
2018-04-12T08:05:32.857Z,53.81
2018-04-12T08:08:01.182Z,53.07
2018-04-12T08:10:29.437Z,51.93
2018-04-12T08:12:57.806Z,50.80
2018-04-12T08:15:26.126Z,50.57
2018-04-12T08:17:55.367Z,49.97
2018-04-12T08:20:23.695Z,49.90
2018-04-12T08:22:52.763Z,49.43
2018-04-12T08:25:21.118Z,49.19
2018-04-12T08:27:49.414Z,48.87
2018-04-12T08:30:18.287Z,49.18
2018-04-12T08:32:47.506Z,49.20
2018-04-12T08:35:15.974Z,49.14
2018-04-12T08:37:44.253Z,48.05
2018-04-12T08:40:12.552Z,47.98
2018-04-12T08:42:40.829Z,47.66
2018-04-12T08:45:09.166Z,47.14
2018-04-12T08:47:37.439Z,46.62
2018-04-12T08:50:05.737Z,46.63
2018-04-12T08:52:34.030Z,47.65
2018-04-12T08:55:02.334Z,46.43
2018-04-12T08:57:31.383Z,46.98
2018-04-12T08:59:59.657Z,46.26
2018-04-12T09:02:27.918Z,46.98
2018-04-12T09:04:56.213Z,48.46
2018-04-12T09:07:25.281Z,48.43
2018-04-12T09:09:53.590Z,48.35
2018-04-12T09:12:21.951Z,49.09
2018-04-12T09:14:50.239Z,48.87
2018-04-12T09:17:18.511Z,48.68
2018-04-12T09:19:46.783Z,49.47
2018-04-12T09:22:15.111Z,47.29
2018-04-12T09:24:43.391Z,47.58
2018-04-12T09:27:11.662Z,47.49
2018-04-12T09:29:39.946Z,47.01
2018-04-12T09:32:08.251Z,46.15
2018-04-12T09:34:36.511Z,46.05
2018-04-12T09:37:04.769Z,47.55
2018-04-12T09:39:33.134Z,47.35
2018-04-12T09:42:01.632Z,45.34
2018-04-12T09:44:29.903Z,45.28
2018-04-12T09:46:58.177Z,46.91
2018-04-12T09:49:26.597Z,47.30
2018-04-12T09:51:55.656Z,47.57
2018-04-12T09:54:23.922Z,48.44
2018-04-12T09:56:52.235Z,48.72
2018-04-12T09:59:20.545Z,48.80
2018-04-12T10:02:02.149Z,48.61
2018-04-12T10:04:31.174Z,48.49
2018-04-12T10:07:05.591Z,46.95
2018-04-12T10:09:33.972Z,48.92
2018-04-12T10:12:02.249Z,48.94
2018-04-12T10:14:30.515Z,49.05
2018-04-12T10:16:58.768Z,48.90
2018-04-12T10:19:27.193Z,48.84
2018-04-12T10:21:55.447Z,48.86
2018-04-12T10:24:23.722Z,49.53
2018-04-12T10:26:51.995Z,48.28
2018-04-12T10:29:20.278Z,49.31
2018-04-12T10:31:48.636Z,49.19
2018-04-12T10:34:16.971Z,48.75
2018-04-12T10:36:45.297Z,48.83
2018-04-12T10:39:13.595Z,48.86
2018-04-12T10:41:41.871Z,48.80
2018-04-12T10:44:10.308Z,48.36
2018-04-12T10:46:38.591Z,47.05
2018-04-12T10:49:06.885Z,42.28
2018-04-12T10:51:35.169Z,39.70
2018-04-12T10:54:03.432Z,38.32
2018-04-12T10:56:32.010Z,37.29
2018-04-12T10:59:00.267Z,36.88
2018-04-12T11:01:28.570Z,39.68
2018-04-12T11:03:56.848Z,43.75
2018-04-12T11:06:25.141Z,43.58
2018-04-12T11:08:53.456Z,42.72
2018-04-12T11:11:22.510Z,40.26
2018-04-12T11:13:50.783Z,37.20
2018-04-12T11:16:19.038Z,37.90
2018-04-12T11:18:47.382Z,37.32
2018-04-12T11:21:16.431Z,36.80
2018-04-12T11:23:44.742Z,35.34
2018-04-12T11:26:13.047Z,34.77
2018-04-12T11:28:41.378Z,35.39
2018-04-12T11:31:09.630Z,33.80
2018-04-12T11:33:37.921Z,33.89
2018-04-12T11:36:06.202Z,35.18
2018-04-12T11:38:34.530Z,33.67
2018-04-12T11:41:02.795Z,35.51
2018-04-12T11:43:31.078Z,34.01
2018-04-12T11:45:59.372Z,34.41
2018-04-12T11:48:27.635Z,31.54
2018-04-12T11:50:55.909Z,31.19
2018-04-12T11:53:24.224Z,32.59
2018-04-12T11:55:52.559Z,34.44
2018-04-12T11:58:20.805Z,34.62
2018-04-12T12:00:50.804Z,33.88
2018-04-12T12:03:19.253Z,34.44
2018-04-12T12:05:47.605Z,34.44
2018-04-12T12:08:15.884Z,34.50
2018-04-12T12:10:44.155Z,35.44
2018-04-12T12:13:12.467Z,39.58
2018-04-12T12:15:41.546Z,39.85
2018-04-12T12:18:09.860Z,40.65
2018-04-12T12:20:39.232Z,41.69
2018-04-12T12:23:07.553Z,42.27
2018-04-12T12:25:36.602Z,41.26
2018-04-12T12:28:04.939Z,41.12
2018-04-12T12:30:33.233Z,39.26
2018-04-12T12:33:01.493Z,39.53
2018-04-12T12:35:29.791Z,41.41
2018-04-12T12:37:58.092Z,40.32
2018-04-12T12:40:26.410Z,41.11
2018-04-12T12:42:54.712Z,41.41
2018-04-12T12:45:23.002Z,39.74
2018-04-12T12:47:51.335Z,40.85
2018-04-12T12:50:19.610Z,40.85
2018-04-12T12:52:47.874Z,40.98
2018-04-12T12:55:16.943Z,42.72
2018-04-12T12:57:45.228Z,41.50
2018-04-12T13:00:13.472Z,41.85
2018-04-12T13:02:42.126Z,43.32
2018-04-12T13:05:10.443Z,42.36
2018-04-12T13:07:38.737Z,43.24
2018-04-12T13:10:07.068Z,42.64
2018-04-12T13:12:35.334Z,43.40
2018-04-12T13:15:03.608Z,43.52
2018-04-12T13:17:32.026Z,44.87
2018-04-12T13:20:00.454Z,42.26
2018-04-12T13:22:28.867Z,43.00
2018-04-12T13:24:57.208Z,42.55
2018-04-12T13:27:26.166Z,43.10
2018-04-12T13:29:55.195Z,43.64
2018-04-12T13:32:23.475Z,43.17
2018-04-12T13:34:51.774Z,43.26
2018-04-12T13:37:20.105Z,43.45
2018-04-12T13:39:49.160Z,42.59
2018-04-12T13:42:17.446Z,43.86
2018-04-12T13:44:45.904Z,44.96
2018-04-12T13:47:14.199Z,45.00
2018-04-12T13:49:42.460Z,44.98
2018-04-12T13:52:10.742Z,44.78
2018-04-12T13:54:39.035Z,44.56
2018-04-12T13:57:08.094Z,46.03
2018-04-12T13:59:36.436Z,46.03
2018-04-12T14:02:04.708Z,45.46
2018-04-12T14:04:33.061Z,45.88
2018-04-12T14:07:02.211Z,45.29
2018-04-12T14:09:30.504Z,45.43
2018-04-12T14:11:58.825Z,46.18
2018-04-12T14:14:27.864Z,45.50
2018-04-12T14:16:56.126Z,45.62
2018-04-12T14:19:24.412Z,45.55
2018-04-12T14:21:52.708Z,46.14
2018-04-12T14:24:21.811Z,45.27
2018-04-12T14:26:50.409Z,44.29
2018-04-12T14:29:18.699Z,44.31
2018-04-12T14:31:47.038Z,42.65
2018-04-12T14:34:15.390Z,42.43
2018-04-12T14:36:43.667Z,43.84
2018-04-12T14:39:12.116Z,43.53
2018-04-12T14:41:40.396Z,44.77
2018-04-12T14:44:08.686Z,42.91
2018-04-12T14:46:37.165Z,42.67
2018-04-12T14:49:06.274Z,42.55
2018-04-12T14:51:34.542Z,43.57
2018-04-12T14:54:02.867Z,44.00
2018-04-12T14:56:31.926Z,42.39
2018-04-12T14:59:00.196Z,43.47
2018-04-12T15:01:28.481Z,42.56
2018-04-12T15:03:57.545Z,44.06
2018-04-12T15:06:25.848Z,42.20
2018-04-12T15:08:54.463Z,43.16
2018-04-12T15:11:22.777Z,43.16
2018-04-12T15:13:51.059Z,41.99
2018-04-12T15:16:19.432Z,41.31
2018-04-12T15:18:47.721Z,39.77
2018-04-12T15:21:16.007Z,39.79
2018-04-12T15:23:45.166Z,39.79
2018-04-12T15:26:13.455Z,38.01
2018-04-12T15:28:41.746Z,39.14
2018-04-12T15:31:10.022Z,39.71
2018-04-12T15:33:38.294Z,39.04
2018-04-12T15:36:06.706Z,38.92
2018-04-12T15:38:35.009Z,36.78
2018-04-12T15:41:03.309Z,37.56
2018-04-12T15:43:31.580Z,34.69
2018-04-12T15:45:59.890Z,36.04
2018-04-12T15:48:28.160Z,34.49
2018-04-12T15:50:56.757Z,35.78
2018-04-12T15:53:25.051Z,33.34
2018-04-12T15:55:54.111Z,33.94
2018-04-12T15:58:22.413Z,32.38
2018-04-12T16:00:51.457Z,33.85
2018-04-12T16:03:19.721Z,33.89
2018-04-12T16:05:47.995Z,33.55
2018-04-12T16:08:16.255Z,32.53
2018-04-12T16:10:44.540Z,32.98
2018-04-12T16:13:12.822Z,32.78
2018-04-12T16:15:41.094Z,31.40
2018-04-12T16:18:09.375Z,31.86
2018-04-12T16:20:37.668Z,32.39
2018-04-12T16:23:05.950Z,34.11
2018-04-12T16:25:34.274Z,35.96
2018-04-12T16:28:03.375Z,34.42
2018-04-12T16:30:31.801Z,34.20
2018-04-12T16:33:00.545Z,35.07
2018-04-12T16:35:28.962Z,37.20
2018-04-12T16:37:57.596Z,38.02
2018-04-12T16:40:25.871Z,37.97
2018-04-12T16:42:54.468Z,38.85
2018-04-12T16:45:22.819Z,40.29
2018-04-12T16:47:51.066Z,42.11
2018-04-12T16:50:19.372Z,42.71
2018-04-12T16:52:48.418Z,42.93
2018-04-12T16:55:16.801Z,42.06
2018-04-12T16:57:45.109Z,42.09
2018-04-12T17:00:13.446Z,40.98
2018-04-12T17:02:41.752Z,42.09
2018-04-12T17:05:10.801Z,41.82
2018-04-12T17:07:39.100Z,41.65
2018-04-12T17:10:07.372Z,41.91
2018-04-12T17:12:35.731Z,42.37
2018-04-12T17:15:04.236Z,43.34
2018-04-12T17:17:32.525Z,42.90
2018-04-12T17:23:08.615Z,43.30
2018-04-12T17:25:37.731Z,43.54
2018-04-12T17:28:06.795Z,44.13
2018-04-12T17:30:35.093Z,44.48
2018-04-12T17:33:03.384Z,44.72
2018-04-12T17:35:31.706Z,45.19
2018-04-12T17:37:59.991Z,45.31
2018-04-12T17:40:28.765Z,46.00
2018-04-12T17:42:57.233Z,46.60
2018-04-12T17:45:25.527Z,46.00
2018-04-12T17:47:53.850Z,46.77
2018-04-12T17:50:26.000Z,46.69
2018-04-12T17:52:54.521Z,47.76
2018-04-12T17:55:23.611Z,47.35
2018-04-12T17:57:52.065Z,47.60
2018-04-12T18:00:21.148Z,48.02
2018-04-12T18:02:50.215Z,49.22
2018-04-12T18:05:18.653Z,49.08
2018-04-12T18:07:47.271Z,50.25
2018-04-12T18:10:15.633Z,50.69
2018-04-12T18:12:44.070Z,50.46
2018-04-12T18:15:12.486Z,51.68
2018-04-12T18:17:40.990Z,51.84
2018-04-12T18:20:10.187Z,52.39
2018-04-12T18:22:39.042Z,52.11
2018-04-12T18:25:07.562Z,52.54
2018-04-12T18:27:37.343Z,52.02
2018-04-12T18:30:05.793Z,52.19
2018-04-12T18:32:34.383Z,53.35
2018-04-12T18:35:03.071Z,53.76
2018-04-12T18:37:31.557Z,54.14
2018-04-12T18:40:00.219Z,54.05
2018-04-12T18:42:29.341Z,54.38
2018-04-12T18:44:57.941Z,54.28
2018-04-12T18:47:26.504Z,55.44
2018-04-12T18:49:55.083Z,55.48
2018-04-12T18:52:23.767Z,55.95
2018-04-12T18:54:52.153Z,56.54
2018-04-12T18:57:20.553Z,56.94
2018-04-12T18:59:49.318Z,58.08
2018-04-12T19:02:17.796Z,59.35
2018-04-12T19:04:46.150Z,59.79
2018-04-12T19:07:14.769Z,58.96
2018-04-12T19:09:43.557Z,59.22
2018-04-12T19:12:12.533Z,58.78
2018-04-12T19:14:41.227Z,58.10
2018-04-12T19:17:10.078Z,57.93
2018-04-12T19:19:39.107Z,58.88
2018-04-12T19:22:08.580Z,57.64
2018-04-12T19:24:37.056Z,58.26
2018-04-12T19:27:05.775Z,58.56
2018-04-12T19:29:34.181Z,57.73
2018-04-12T19:32:02.540Z,58.50
2018-04-12T19:34:30.882Z,58.29
2018-04-12T19:36:59.197Z,58.62
2018-04-12T19:39:27.499Z,58.59
2018-04-12T19:41:56.666Z,59.03
2018-04-12T19:44:24.928Z,59.93
2018-04-12T19:46:53.220Z,59.98
2018-04-12T19:49:21.574Z,60.45
2018-04-12T19:51:49.905Z,61.30
2018-04-12T19:54:19.045Z,61.81
2018-04-12T19:56:47.340Z,62.32
2018-04-12T19:59:15.609Z,62.56
2018-04-12T20:01:43.916Z,62.57
2018-04-12T20:04:12.201Z,62.38
2018-04-12T20:06:41.259Z,63.11
2018-04-12T20:09:09.539Z,63.94
2018-04-12T20:11:37.839Z,64.47
2018-04-12T20:14:06.900Z,64.68
2018-04-12T20:16:35.729Z,65.19
2018-04-12T20:19:04.786Z,66.08
2018-04-12T20:21:33.063Z,66.02
2018-04-12T20:24:01.361Z,65.74
2018-04-12T20:26:29.659Z,66.53
2018-04-12T20:28:58.720Z,66.78
2018-04-12T20:31:27.009Z,66.65
2018-04-12T20:33:55.288Z,67.90
2018-04-12T20:36:24.703Z,68.07
2018-04-12T20:38:53.892Z,66.95
2018-04-12T20:41:22.287Z,67.02
2018-04-12T20:43:50.595Z,66.75
2018-04-12T20:46:18.981Z,66.61
2018-04-12T20:48:47.279Z,66.82
2018-04-12T20:51:15.612Z,66.96
2018-04-12T20:53:43.909Z,66.90
2018-04-12T20:56:12.190Z,67.74
2018-04-12T20:58:40.508Z,67.65
2018-04-12T21:01:09.558Z,67.73
2018-04-12T21:03:37.814Z,68.34
2018-04-12T21:06:06.137Z,67.55
2018-04-12T21:08:35.195Z,66.76
2018-04-12T21:11:03.568Z,66.81
2018-04-12T21:13:31.894Z,68.10
2018-04-12T21:16:00.956Z,67.75
2018-04-12T21:18:29.248Z,67.55
2018-04-12T21:20:57.506Z,68.71
2018-04-12T21:23:25.879Z,69.15
2018-04-12T21:25:54.146Z,69.60
2018-04-12T21:28:22.439Z,69.48
2018-04-12T21:30:50.727Z,69.79
2018-04-12T21:33:19.065Z,69.12
2018-04-12T21:35:47.324Z,69.21
2018-04-12T21:38:15.614Z,69.22
2018-04-12T21:40:43.886Z,69.98
2018-04-12T21:43:12.365Z,70.18
2018-04-12T21:45:40.658Z,69.85
2018-04-12T21:48:08.942Z,70.41
2018-04-12T21:50:37.250Z,70.86
2018-04-12T21:53:06.279Z,71.37
2018-04-12T21:55:34.590Z,71.50
2018-04-12T21:58:02.866Z,71.67
2018-04-12T22:00:31.540Z,70.93
2018-04-12T22:02:59.814Z,71.50
2018-04-12T22:05:28.088Z,71.41
2018-04-12T22:07:56.395Z,72.26
2018-04-12T22:10:25.457Z,72.48
2018-04-12T22:12:53.710Z,71.80
2018-04-12T22:15:22.127Z,72.40
2018-04-12T22:17:51.187Z,72.35
2018-04-12T22:20:19.468Z,72.95
2018-04-12T22:22:47.771Z,73.57
2018-04-12T22:25:16.048Z,73.70
2018-04-12T22:27:44.325Z,73.13
2018-04-12T22:30:12.575Z,73.21
2018-04-12T22:32:40.959Z,73.07
2018-04-12T22:35:09.924Z,73.32
2018-04-12T22:37:38.932Z,73.37
2018-04-12T22:40:07.331Z,74.09
2018-04-12T22:42:35.594Z,75.01
2018-04-12T22:45:03.912Z,75.27
2018-04-12T22:47:32.961Z,75.59
2018-04-12T22:50:01.253Z,74.92
2018-04-12T22:52:29.505Z,75.20
2018-04-12T22:54:57.880Z,74.92
2018-04-12T22:57:26.160Z,75.03
2018-04-12T22:59:54.467Z,75.03
2018-04-12T23:02:22.707Z,74.78
2018-04-12T23:04:51.002Z,74.99
2018-04-12T23:07:19.271Z,74.74
2018-04-12T23:09:47.540Z,74.13
2018-04-12T23:12:15.817Z,75.06
2018-04-12T23:14:44.069Z,75.52
2018-04-12T23:17:12.525Z,74.67
2018-04-12T23:19:40.790Z,75.87
2018-04-12T23:22:09.830Z,76.15
2018-04-12T23:24:38.330Z,75.98
2018-04-12T23:27:06.605Z,75.95
2018-04-12T23:29:34.866Z,76.56
2018-04-12T23:34:38.924Z,78.21
2018-04-12T23:37:07.967Z,78.07
2018-04-12T23:39:36.234Z,78.31
2018-04-12T23:42:04.509Z,78.25
2018-04-12T23:44:32.871Z,78.92
2018-04-12T23:47:01.909Z,79.12
2018-04-12T23:49:30.190Z,77.92
2018-04-12T23:51:58.467Z,78.66
2018-04-12T23:54:26.730Z,78.45
2018-04-12T23:56:54.993Z,78.70
2018-04-12T23:59:23.293Z,78.05
